Burr Ridge, Illinois
Current Conditions -  °F | °C
As of 9:53 PM on Tuesday 27 Jan 2015 (Local Time) from KMDW Reporting Station
Few Clouds Few Clouds  
Wind Chill: 28°   Ceiling: Unl
Heat Index: 28°   Visibility: 10mi
Dew Point: 18°   Wind: 0mph
Humidity: 66%   Direction: NA
Pressure: 30.26"   Gusts: NA
Location:  41.755°N, 87.9282°W
Report Text: KMDW 280353Z 00000KT 10SM FEW025 M02/M08 A3026 RMK AO2 SLP259 T10221078
Loading
Personal Weather Stations






























Interactive Weather Map New forecast layout! Learn more

10-Day Weather Forecast

Advertisements
Track Severe Weather on mobile